Time;durP1;ratioP1;P1;durP2;ratioP2;P2;SDS_P1;SDS_P2;PMS_P1;PMS_P2;Temp;Humidity;BMP_temperature;BMP_pressure;BME280_temperature;BME280_humidity;BME280_pressure;Samples;Min_cycle;Max_cycle;Signal;HPM_P1;HPM_P2
2022/10/29 00:01:24;;;;;;;12.48;5.63;;;16.80;79.80;;;;;;5000764;28;20034;-89
2022/10/29 00:03:50;;;;;;;15.07;6.65;;;16.80;80.10;;;;;;5001526;28;20061;-89
2022/10/29 00:06:16;;;;;;;9.73;6.13;;;16.80;80.50;;;;;;5019041;28;20097;-88
2022/10/29 00:08:41;;;;;;;14.02;6.53;;;16.80;80.60;;;;;;5003553;28;20026;-89
2022/10/29 00:11:17;;;;;;;12.98;6.45;;;16.80;80.30;;;;;;5002276;28;20365;-89
2022/10/29 00:13:44;;;;;;;12.45;6.18;;;16.80;80.20;;;;;;5018003;28;20021;-89
2022/10/29 00:16:16;;;;;;;12.18;6.57;;;16.80;80.50;;;;;;5016714;28;20029;-89
2022/10/29 00:18:42;;;;;;;11.55;5.95;;;16.80;80.40;;;;;;5018452;28;20045;-89
2022/10/29 00:21:12;;;;;;;10.10;6.07;;;16.80;80.40;;;;;;5000275;28;20030;-89
2022/10/29 00:23:38;;;;;;;16.58;6.38;;;16.80;80.20;;;;;;5017463;28;20034;-89
2022/10/29 00:26:04;;;;;;;10.60;6.25;;;16.80;80.80;;;;;;5001464;28;20082;-89
2022/10/29 00:28:30;;;;;;;11.68;6.30;;;16.80;79.80;;;;;;5016748;28;20467;-90
2022/10/29 00:30:56;;;;;;;14.20;6.05;;;16.60;79.60;;;;;;4999864;28;20022;-89
2022/10/29 00:33:22;;;;;;;14.13;5.90;;;16.60;79.70;;;;;;5000443;28;20040;-90
2022/10/29 00:36:05;;;;;;;8.35;5.40;;;16.50;79.60;;;;;;5000505;28;20030;-89
2022/10/29 00:38:32;;;;;;;13.45;6.28;;;16.40;79.70;;;;;;5001741;28;20026;-90
2022/10/29 00:40:58;;;;;;;14.50;6.70;;;16.40;79.70;;;;;;4999504;28;20026;-89
2022/10/29 00:43:26;;;;;;;12.27;6.35;;;16.20;80.40;;;;;;5001836;28;20036;-89
2022/10/29 00:46:08;;;;;;;11.40;6.18;;;16.10;81.10;;;;;;5005206;28;20018;-89
2022/10/29 00:48:40;;;;;;;17.90;6.82;;;16.10;81.50;;;;;;5018903;28;20026;-89
2022/10/29 00:51:08;;;;;;;12.35;7.20;;;16.20;81.90;;;;;;5018836;28;20379;-89
2022/10/29 00:53:39;;;;;;;13.73;6.75;;;16.30;82.20;;;;;;5020311;28;20101;-90
2022/10/29 00:56:05;;;;;;;13.70;7.05;;;16.30;82.10;;;;;;5019750;28;20088;-89
2022/10/29 00:58:31;;;;;;;16.33;7.32;;;16.30;82.30;;;;;;5002457;28;20396;-90
2022/10/29 01:00:58;;;;;;;16.10;7.00;;;16.30;82.60;;;;;;5001867;28;20030;-89
2022/10/29 01:03:24;;;;;;;13.30;7.85;;;16.30;82.70;;;;;;5000832;28;20092;-89
2022/10/29 01:05:51;;;;;;;16.40;7.20;;;16.40;83.40;;;;;;5001334;28;20054;-89
2022/10/29 01:08:18;;;;;;;16.15;7.43;;;16.40;83.00;;;;;;4999055;28;20053;-90
2022/10/29 01:11:01;;;;;;;16.60;8.07;;;16.40;82.80;;;;;;4998891;28;20513;-89
2022/10/29 01:14:12;;;;;;;16.45;7.80;;;16.50;82.70;;;;;;5014754;28;20081;-89
2022/10/29 01:16:53;;;;;;;14.55;7.03;;;16.50;82.50;;;;;;4998058;28;20038;-89
2022/10/29 01:19:45;;;;;;;14.32;7.50;;;16.50;82.70;;;;;;5014894;28;20120;-89
2022/10/29 01:22:23;;;;;;;13.48;6.32;;;16.60;82.60;;;;;;5014983;28;20022;-89
2022/10/29 01:25:29;;;;;;;12.15;6.72;;;16.50;83.00;;;;;;5016451;28;20021;-90
2022/10/29 01:28:13;;;;;;;14.25;7.50;;;16.40;83.30;;;;;;5015961;28;20447;-90
2022/10/29 01:30:53;;;;;;;13.20;7.82;;;16.50;83.40;;;;;;5014576;28;20033;-90
2022/10/29 01:33:28;;;;;;;13.13;7.22;;;16.40;83.90;;;;;;5014710;28;20034;-89
2022/10/29 01:35:59;;;;;;;11.75;6.60;;;16.40;83.90;;;;;;5014284;28;20045;-89
2022/10/29 01:38:44;;;;;;;12.40;7.10;;;16.40;83.90;;;;;;5014075;28;20026;-90
2022/10/29 01:41:28;;;;;;;16.42;7.32;;;16.50;83.80;;;;;;5014504;28;20025;-90
2022/10/29 01:44:07;;;;;;;12.80;6.78;;;16.50;83.60;;;;;;5014682;28;20022;-90
2022/10/29 01:47:00;;;;;;;15.48;7.75;;;16.50;83.40;;;;;;5014673;28;20064;-89
2022/10/29 01:49:34;;;;;;;15.38;7.20;;;16.50;83.50;;;;;;5015912;28;20030;-89
2022/10/29 01:52:02;;;;;;;15.10;7.50;;;16.50;83.70;;;;;;5018311;28;20025;-89
2022/10/29 01:54:27;;;;;;;16.08;7.43;;;16.50;83.60;;;;;;5016414;28;20387;-89
2022/10/29 01:56:57;;;;;;;13.60;7.22;;;16.60;83.40;;;;;;5001197;28;20034;-89
2022/10/29 01:59:28;;;;;;;13.35;7.05;;;16.60;83.20;;;;;;5017676;28;20014;-89
2022/10/29 02:02:12;;;;;;;12.75;6.80;;;16.60;82.90;;;;;;5015966;28;20041;-90
2022/10/29 02:04:48;;;;;;;18.75;7.22;;;16.50;82.70;;;;;;5015362;28;20104;-89
2022/10/29 02:07:29;;;;;;;12.00;6.82;;;16.40;83.00;;;;;;5015420;28;20030;-89
2022/10/29 02:10:18;;;;;;;14.65;6.70;;;16.40;83.00;;;;;;5016003;28;20022;-89
2022/10/29 02:12:54;;;;;;;14.02;6.85;;;16.30;83.00;;;;;;5014073;28;20033;-90
2022/10/29 02:15:48;;;;;;;11.23;6.18;;;16.20;83.00;;;;;;5014196;28;20033;-89
2022/10/29 02:18:15;;;;;;;14.10;6.88;;;16.20;82.90;;;;;;4996986;28;20034;-90
2022/10/29 02:20:43;;;;;;;14.73;7.03;;;16.20;83.10;;;;;;4997269;28;20045;-89
2022/10/29 02:23:09;;;;;;;13.07;7.07;;;16.30;82.90;;;;;;5014181;28;20480;-90
2022/10/29 02:25:35;;;;;;;12.30;6.07;;;16.20;82.60;;;;;;4997631;28;20036;-89
2022/10/29 02:28:01;;;;;;;13.02;6.55;;;16.20;82.50;;;;;;5013936;28;20036;-89
2022/10/29 02:30:26;;;;;;;11.80;6.60;;;16.20;82.30;;;;;;4997508;28;20022;-90
2022/10/29 02:32:52;;;;;;;10.15;6.43;;;16.20;82.20;;;;;;4997374;28;20034;-89
2022/10/29 02:35:18;;;;;;;15.38;6.68;;;16.10;82.20;;;;;;4997007;28;20105;-89
2022/10/29 02:37:43;;;;;;;13.15;6.28;;;16.00;82.40;;;;;;4997092;28;20040;-89
2022/10/29 02:40:10;;;;;;;11.68;6.60;;;16.00;82.30;;;;;;4998249;28;20033;-89
2022/10/29 02:42:35;;;;;;;9.40;5.95;;;16.10;82.10;;;;;;4999665;28;20029;-89
2022/10/29 02:45:03;;;;;;;15.18;6.65;;;16.10;82.00;;;;;;4999022;28;20161;-89
2022/10/29 02:47:30;;;;;;;12.95;5.55;;;16.10;81.90;;;;;;5002446;28;20034;-89
2022/10/29 02:49:55;;;;;;;11.18;6.05;;;16.10;81.80;;;;;;5000655;28;20037;-90
2022/10/29 02:52:21;;;;;;;13.07;6.50;;;16.20;81.90;;;;;;5001181;28;20026;-89
2022/10/29 02:54:47;;;;;;;11.70;6.03;;;16.10;81.50;;;;;;4997553;28;20361;-90
2022/10/29 02:57:13;;;;;;;9.63;6.07;;;16.00;81.40;;;;;;4998269;28;20201;-90
2022/10/29 02:59:38;;;;;;;12.38;6.43;;;16.00;82.40;;;;;;4996766;28;20026;-90
2022/10/29 03:02:04;;;;;;;10.23;6.40;;;16.00;81.50;;;;;;4997226;28;20137;-89
2022/10/29 03:04:30;;;;;;;11.30;6.38;;;15.90;81.60;;;;;;4996252;28;20086;-89
2022/10/29 03:06:55;;;;;;;9.02;5.57;;;15.80;81.70;;;;;;4996751;28;20490;-89
2022/10/29 03:09:21;;;;;;;12.85;6.30;;;15.70;81.90;;;;;;4997061;28;20133;-89
2022/10/29 03:11:47;;;;;;;13.02;6.55;;;15.70;82.20;;;;;;4996711;28;20061;-89
2022/10/29 03:14:12;;;;;;;10.68;6.13;;;15.80;82.20;;;;;;4996826;28;20049;-90
2022/10/29 03:16:38;;;;;;;10.27;5.57;;;15.80;82.00;;;;;;4996926;28;20033;-89
2022/10/29 03:19:04;;;;;;;9.70;5.28;;;15.90;81.20;;;;;;4998016;28;20037;-90
2022/10/29 03:21:30;;;;;;;8.68;5.35;;;15.80;80.70;;;;;;4997405;28;20468;-89
2022/10/29 03:23:55;;;;;;;8.98;5.60;;;15.80;81.20;;;;;;4997686;28;20030;-89
2022/10/29 03:26:21;;;;;;;11.20;6.28;;;15.80;81.60;;;;;;4996970;28;20053;-90
2022/10/29 03:28:46;;;;;;;10.75;6.22;;;15.80;82.00;;;;;;4997366;28;20562;-89
2022/10/29 03:31:13;;;;;;;8.85;4.80;;;15.80;82.20;;;;;;4999548;28;20109;-89
2022/10/29 03:33:38;;;;;;;10.68;5.90;;;15.70;82.30;;;;;;4999587;28;20492;-89
2022/10/29 03:36:05;;;;;;;11.57;5.35;;;15.60;82.50;;;;;;4997927;28;20065;-89
2022/10/29 03:38:31;;;;;;;11.30;5.65;;;15.60;82.20;;;;;;5014069;28;20050;-90
2022/10/29 03:40:57;;;;;;;10.25;5.68;;;15.60;82.40;;;;;;5013149;28;20475;-90
2022/10/29 03:43:23;;;;;;;10.45;5.53;;;15.70;82.30;;;;;;4997082;28;20476;-89
2022/10/29 03:45:53;;;;;;;12.30;5.65;;;15.70;82.10;;;;;;4996826;28;20026;-90
2022/10/29 03:48:20;;;;;;;11.48;6.00;;;15.70;81.90;;;;;;4996963;28;20030;-89
2022/10/29 03:50:57;;;;;;;10.20;5.72;;;15.80;82.90;;;;;;5002417;28;20034;-89
2022/10/29 03:53:24;;;;;;;13.07;6.03;;;15.80;82.10;;;;;;5018728;28;20049;-90
2022/10/29 03:55:54;;;;;;;10.77;5.90;;;15.80;82.20;;;;;;5019128;28;20025;-90
2022/10/29 03:58:20;;;;;;;12.15;6.70;;;15.80;82.20;;;;;;5002455;28;20076;-90
2022/10/29 04:01:07;;;;;;;8.68;6.15;;;15.80;83.20;;;;;;5002263;28;20018;-89
2022/10/29 04:03:36;;;;;;;11.00;6.22;;;15.80;82.50;;;;;;5018765;28;20030;-89
2022/10/29 04:06:28;;;;;;;13.90;6.93;;;15.80;82.90;;;;;;5001507;28;20054;-89
2022/10/29 04:08:54;;;;;;;11.57;6.25;;;15.80;83.00;;;;;;5000923;28;20052;-89
2022/10/29 04:11:21;;;;;;;9.65;6.10;;;15.80;83.10;;;;;;5002015;28;20570;-90
2022/10/29 04:13:51;;;;;;;10.52;6.43;;;15.80;83.00;;;;;;5018316;28;20029;-89
2022/10/29 04:16:23;;;;;;;10.68;6.07;;;15.80;83.00;;;;;;5002536;28;20014;-89
2022/10/29 04:18:50;;;;;;;9.52;6.13;;;15.80;83.10;;;;;;5021905;28;20025;-90
2022/10/29 04:21:16;;;;;;;11.60;6.28;;;15.80;83.20;;;;;;5005074;28;20062;-89
2022/10/29 04:23:42;;;;;;;9.95;5.38;;;15.80;83.30;;;;;;5022062;28;20089;-90
2022/10/29 04:26:08;;;;;;;11.77;6.03;;;15.90;83.30;;;;;;5017008;28;20026;-89
2022/10/29 04:28:34;;;;;;;10.80;5.95;;;15.90;83.20;;;;;;5017266;28;20036;-89
2022/10/29 04:31:05;;;;;;;15.07;6.85;;;15.90;83.20;;;;;;5000503;28;20022;-89
2022/10/29 04:33:31;;;;;;;14.02;6.53;;;15.90;83.30;;;;;;5000254;28;20068;-89
2022/10/29 04:35:56;;;;;;;11.05;6.53;;;15.90;83.20;;;;;;5000633;28;20022;-90
2022/10/29 04:38:22;;;;;;;13.88;7.28;;;15.80;83.30;;;;;;4999682;28;20518;-90
2022/10/29 04:40:48;;;;;;;12.80;6.60;;;15.70;83.70;;;;;;4999834;28;20033;-90
2022/10/29 04:43:14;;;;;;;12.45;6.60;;;15.60;83.90;;;;;;5016971;28;20022;-90
2022/10/29 04:45:40;;;;;;;11.18;6.25;;;15.60;84.00;;;;;;4999426;28;20025;-90
2022/10/29 04:48:06;;;;;;;11.13;6.50;;;15.60;83.80;;;;;;4999315;28;20030;-90
2022/10/29 04:50:32;;;;;;;12.13;6.80;;;15.70;83.90;;;;;;5016381;28;20026;-90
2022/10/29 04:52:59;;;;;;;15.50;7.25;;;15.70;84.00;;;;;;4999192;28;20022;-89
2022/10/29 04:55:25;;;;;;;12.57;6.80;;;15.60;84.00;;;;;;4998965;28;20026;-89
2022/10/29 04:57:51;;;;;;;10.40;6.18;;;15.60;84.00;;;;;;4982880;28;20040;-90
2022/10/29 05:00:17;;;;;;;8.93;5.95;;;15.60;84.10;;;;;;4998696;28;20466;-89
2022/10/29 05:02:48;;;;;;;9.90;6.38;;;15.60;83.80;;;;;;4999460;28;20033;-90
2022/10/29 05:05:17;;;;;;;11.43;6.22;;;15.60;83.70;;;;;;5016683;28;20049;-90
2022/10/29 05:07:42;;;;;;;10.30;5.95;;;15.50;83.80;;;;;;5002589;28;20505;-89
2022/10/29 05:10:08;;;;;;;8.50;5.38;;;15.50;83.90;;;;;;5000352;28;20026;-89
2022/10/29 05:12:34;;;;;;;10.13;6.30;;;15.50;83.90;;;;;;5016242;28;20026;-89
2022/10/29 05:15:00;;;;;;;10.07;5.60;;;15.50;84.00;;;;;;5000739;28;20115;-89
2022/10/29 05:17:25;;;;;;;13.27;6.57;;;15.40;84.00;;;;;;4999400;28;20037;-89
2022/10/29 05:19:51;;;;;;;13.68;6.80;;;15.50;84.00;;;;;;4998782;28;20037;-89
2022/10/29 05:22:17;;;;;;;11.80;5.90;;;15.50;84.00;;;;;;4999063;28;20038;-89
2022/10/29 05:24:42;;;;;;;11.20;6.22;;;15.60;83.80;;;;;;4999777;28;20034;-90
2022/10/29 05:27:08;;;;;;;10.18;6.57;;;15.60;83.70;;;;;;4982738;28;20488;-89
2022/10/29 05:29:34;;;;;;;15.13;6.90;;;15.60;83.60;;;;;;4998426;28;20029;-89
2022/10/29 05:31:59;;;;;;;11.77;5.97;;;15.60;83.50;;;;;;4982501;28;20045;-89
2022/10/29 05:34:25;;;;;;;12.52;6.47;;;15.60;83.20;;;;;;4999434;28;20022;-89
2022/10/29 05:36:51;;;;;;;11.15;6.00;;;15.60;83.30;;;;;;5016155;28;20022;-89
2022/10/29 05:39:17;;;;;;;12.32;6.82;;;15.60;83.40;;;;;;5017657;28;20037;-89
2022/10/29 05:41:42;;;;;;;10.20;5.97;;;15.60;83.30;;;;;;5001061;28;20026;-89
2022/10/29 05:44:08;;;;;;;10.70;5.93;;;15.60;83.20;;;;;;5018090;28;20029;-90
2022/10/29 05:46:34;;;;;;;11.75;5.50;;;15.60;83.10;;;;;;5017854;28;20038;-89
2022/10/29 05:48:59;;;;;;;10.27;5.53;;;15.60;83.20;;;;;;5001350;28;20044;-89
2022/10/29 05:51:25;;;;;;;9.45;5.15;;;15.50;83.30;;;;;;5001157;28;20026;-89
2022/10/29 05:53:50;;;;;;;10.80;6.20;;;15.50;83.40;;;;;;5016928;28;20029;-90
2022/10/29 05:56:16;;;;;;;10.50;6.38;;;15.50;83.60;;;;;;5001115;28;20044;-89
2022/10/29 05:58:42;;;;;;;11.43;6.32;;;15.60;84.60;;;;;;5001777;28;20128;-89
2022/10/29 06:01:09;;;;;;;14.80;6.90;;;15.60;83.70;;;;;;5001594;28;20025;-90
2022/10/29 06:03:36;;;;;;;13.45;7.18;;;15.50;83.80;;;;;;5018285;28;20388;-89
2022/10/29 06:06:01;;;;;;;12.32;5.72;;;15.40;83.90;;;;;;5030609;28;20049;-90
2022/10/29 06:08:27;;;;;;;11.38;6.15;;;15.40;84.90;;;;;;5037667;28;20032;-89
2022/10/29 06:10:52;;;;;;;10.35;5.63;;;15.30;84.10;;;;;;5004809;28;20033;-90
2022/10/29 06:13:20;;;;;;;11.23;6.05;;;15.30;84.30;;;;;;5004813;28;20033;-89
2022/10/29 06:15:47;;;;;;;9.57;6.15;;;15.30;84.30;;;;;;5021033;28;20025;-89
2022/10/29 06:18:13;;;;;;;14.27;6.30;;;15.30;84.30;;;;;;5037607;28;20068;-90
2022/10/29 06:20:39;;;;;;;10.10;6.15;;;15.40;84.40;;;;;;5020695;28;20064;-89
2022/10/29 06:23:05;;;;;;;12.30;6.65;;;15.40;84.40;;;;;;5036909;28;20056;-89
2022/10/29 06:25:31;;;;;;;10.30;6.43;;;15.40;84.40;;;;;;5036863;28;20039;-89
2022/10/29 06:28:02;;;;;;;12.00;6.18;;;15.40;84.40;;;;;;5003979;28;20494;-89
2022/10/29 06:30:29;;;;;;;15.65;6.93;;;15.40;85.20;;;;;;5020666;28;20020;-89
2022/10/29 06:32:55;;;;;;;14.38;7.13;;;15.50;84.50;;;;;;5053068;28;20079;-89
2022/10/29 06:35:21;;;;;;;18.13;8.73;;;15.50;84.60;;;;;;5036927;28;20029;-89
2022/10/29 06:37:46;;;;;;;18.10;7.32;;;15.50;84.60;;;;;;5021046;28;20098;-90
2022/10/29 06:40:12;;;;;;;14.77;7.40;;;15.50;84.60;;;;;;5003227;28;20029;-90
2022/10/29 06:42:38;;;;;;;20.73;7.25;;;15.60;84.70;;;;;;5003446;28;20031;-89
2022/10/29 06:45:04;;;;;;;16.25;7.07;;;15.60;84.70;;;;;;5036816;28;20406;-89
2022/10/29 06:47:29;;;;;;;13.85;7.13;;;15.60;84.90;;;;;;5001977;28;20122;-89
2022/10/29 06:49:55;;;;;;;14.50;6.65;;;15.50;85.10;;;;;;5001748;28;20076;-90
2022/10/29 06:52:21;;;;;;;14.02;6.97;;;15.50;85.30;;;;;;5001937;28;20040;-89
2022/10/29 06:54:47;;;;;;;12.32;6.63;;;15.60;85.30;;;;;;5035105;28;20021;-89
2022/10/29 06:57:12;;;;;;;12.68;6.78;;;15.60;85.30;;;;;;5034917;28;20033;-89
2022/10/29 06:59:38;;;;;;;19.33;6.80;;;15.60;85.20;;;;;;5001993;28;20386;-90
2022/10/29 07:02:04;;;;;;;14.38;6.50;;;15.70;85.40;;;;;;5002880;28;20037;-89
2022/10/29 07:04:29;;;;;;;10.88;6.28;;;15.60;85.40;;;;;;5036326;28;20544;-89
2022/10/29 07:06:55;;;;;;;12.07;6.43;;;15.70;85.40;;;;;;5035939;28;20524;-89
2022/10/29 07:09:20;;;;;;;13.07;6.72;;;15.70;86.20;;;;;;5003619;28;20024;-88
2022/10/29 07:11:46;;;;;;;13.70;7.10;;;15.60;85.40;;;;;;5036073;28;20056;-90
2022/10/29 07:14:12;;;;;;;16.20;6.90;;;15.60;85.60;;;;;;5036217;28;20021;-90
2022/10/29 07:16:37;;;;;;;12.38;6.88;;;15.60;85.70;;;;;;5036219;28;20029;-89
2022/10/29 07:19:03;;;;;;;13.60;7.38;;;15.70;85.60;;;;;;5019755;28;20017;-90
2022/10/29 07:21:29;;;;;;;14.77;7.75;;;15.70;85.50;;;;;;5053762;28;20022;-89
2022/10/29 07:23:56;;;;;;;16.33;8.07;;;15.70;85.50;;;;;;5035539;28;20034;-89
2022/10/29 07:26:21;;;;;;;19.15;7.72;;;15.70;85.60;;;;;;5019237;28;20090;-89
2022/10/29 07:28:47;;;;;;;15.45;7.90;;;15.70;85.70;;;;;;5036501;28;20029;-89
2022/10/29 07:31:12;;;;;;;14.73;8.30;;;15.70;85.70;;;;;;5003659;28;20102;-90
2022/10/29 07:33:38;;;;;;;17.60;8.35;;;15.80;85.70;;;;;;5004110;28;20035;-90
2022/10/29 07:36:05;;;;;;;18.48;8.77;;;15.80;85.70;;;;;;5005432;28;20025;-89
2022/10/29 07:38:30;;;;;;;21.70;9.18;;;15.80;85.90;;;;;;5004142;28;20470;-89
2022/10/29 07:40:56;;;;;;;17.73;8.73;;;15.80;86.00;;;;;;5019590;28;20036;-89
2022/10/29 07:43:22;;;;;;;17.67;9.05;;;15.80;86.30;;;;;;5020260;28;20434;-90
2022/10/29 07:45:50;;;;;;;18.48;9.85;;;15.80;86.30;;;;;;5020454;28;20051;-90
2022/10/29 07:48:18;;;;;;;18.98;10.05;;;15.90;86.40;;;;;;5039457;28;20085;-89
2022/10/29 07:50:43;;;;;;;24.08;11.55;;;15.90;86.50;;;;;;5022398;28;20021;-89
2022/10/29 07:53:10;;;;;;;23.35;12.55;;;15.80;86.90;;;;;;5039695;28;20021;-89
2022/10/29 07:55:36;;;;;;;28.02;13.77;;;15.80;87.30;;;;;;5024942;28;20355;-89
2022/10/29 07:58:04;;;;;;;29.65;13.68;;;15.80;87.50;;;;;;5041074;28;20033;-91
2022/10/29 08:00:32;;;;;;;26.60;14.50;;;15.80;87.50;;;;;;5058601;28;20040;-89
2022/10/29 08:02:58;;;;;;;26.42;14.82;;;15.90;87.70;;;;;;5057274;28;20510;-91
2022/10/29 08:05:25;;;;;;;34.30;15.13;;;15.90;87.70;;;;;;5025352;28;20095;-89
2022/10/29 08:07:54;;;;;;;27.70;15.35;;;16.00;87.60;;;;;;5057297;28;20471;-89
2022/10/29 08:10:20;;;;;;;38.10;16.58;;;16.10;87.70;;;;;;5056952;28;20428;-89
2022/10/29 08:12:55;;;;;;;25.95;14.63;;;16.30;88.10;;;;;;5058755;28;20024;-89
2022/10/29 08:15:21;;;;;;;24.48;14.57;;;16.40;88.50;;;;;;5058996;28;20043;-89
2022/10/29 08:17:48;;;;;;;25.38;14.50;;;16.50;88.10;;;;;;5059510;28;20025;-89
2022/10/29 08:20:14;;;;;;;27.83;14.55;;;16.60;87.50;;;;;;5041576;28;20139;-89
2022/10/29 08:22:40;;;;;;;27.00;14.88;;;16.60;87.10;;;;;;5055660;28;20025;-89
2022/10/29 08:25:06;;;;;;;23.40;14.02;;;16.60;86.80;;;;;;5039264;28;20090;-89
2022/10/29 08:27:32;;;;;;;28.08;16.63;;;16.60;87.30;;;;;;5038688;28;20036;-90
2022/10/29 08:29:57;;;;;;;26.27;15.52;;;16.70;88.00;;;;;;5039122;28;20037;-89
2022/10/29 08:32:23;;;;;;;27.77;16.48;;;16.70;88.00;;;;;;5022161;28;20090;-89
2022/10/29 08:34:49;;;;;;;33.03;16.40;;;16.70;87.90;;;;;;5055682;28;20048;-89
2022/10/29 08:37:14;;;;;;;30.88;15.90;;;16.80;87.80;;;;;;5022359;28;20107;-89
2022/10/29 08:39:40;;;;;;;30.90;15.93;;;16.70;87.80;;;;;;5055489;28;20071;-89
2022/10/29 08:42:34;;;;;;;27.73;16.00;;;16.80;87.70;;;;;;5022548;28;20470;-89
2022/10/29 08:45:09;;;;;;;25.75;14.75;;;16.80;87.60;;;;;;5038539;28;20032;-89
2022/10/29 08:48:03;;;;;;;27.25;15.38;;;16.80;87.60;;;;;;5055121;28;20025;-88
2022/10/29 08:50:39;;;;;;;30.33;15.25;;;16.80;87.90;;;;;;5038178;28;20068;-89
2022/10/29 08:53:18;;;;;;;29.90;15.32;;;16.80;88.00;;;;;;5055221;28;20017;-89
2022/10/29 08:55:45;;;;;;;26.17;14.70;;;16.90;88.10;;;;;;5054939;28;20056;-89
2022/10/29 08:58:39;;;;;;;25.88;15.02;;;16.90;88.10;;;;;;5039680;28;20538;-89
2022/10/29 09:01:10;;;;;;;31.90;15.70;;;17.00;88.20;;;;;;5059069;28;20044;-88
2022/10/29 09:03:36;;;;;;;27.73;13.90;;;17.00;88.40;;;;;;5054867;28;20038;-88
2022/10/29 09:06:18;;;;;;;31.40;13.82;;;17.00;88.70;;;;;;5055555;28;20049;-91
2022/10/29 09:08:55;;;;;;;19.50;11.80;;;17.10;88.90;;;;;;5044232;28;20025;-91
2022/10/29 09:11:54;;;;;;;31.33;12.90;;;17.20;88.70;;;;;;5048664;28;20028;-92
2022/10/29 09:14:54;;;;;;;23.08;12.65;;;17.30;88.60;;;;;;5026991;28;20030;-91
2022/10/29 09:17:20;;;;;;;24.13;12.50;;;17.30;88.70;;;;;;5027146;28;20476;-90
2022/10/29 09:19:55;;;;;;;20.55;11.88;;;17.40;88.40;;;;;;5027684;28;20033;-90
2022/10/29 09:22:37;;;;;;;24.63;11.98;;;17.40;88.50;;;;;;5028194;28;20026;-92
2022/10/29 09:25:16;;;;;;;20.73;11.95;;;17.40;88.50;;;;;;5030445;28;20026;-91
2022/10/29 09:28:15;;;;;;;25.23;11.75;;;17.40;88.50;;;;;;5028971;28;20002;-91
2022/10/29 09:31:08;;;;;;;25.13;12.80;;;17.40;88.20;;;;;;5024198;28;20033;-92
2022/10/29 09:33:33;;;;;;;24.42;11.63;;;17.50;88.50;;;;;;5018635;28;20386;-93
2022/10/29 09:36:00;;;;;;;26.38;12.10;;;17.50;89.50;;;;;;5012150;28;20053;-92
2022/10/29 09:38:33;;;;;;;26.50;11.82;;;17.60;88.80;;;;;;5028190;28;20037;-91
2022/10/29 09:41:03;;;;;;;19.92;11.60;;;17.60;89.30;;;;;;5027701;28;20021;-92
2022/10/29 09:43:39;;;;;;;25.23;12.15;;;17.70;88.70;;;;;;5029545;28;20029;-92
2022/10/29 09:46:33;;;;;;;22.33;11.45;;;17.80;88.80;;;;;;5012130;28;20034;-91
2022/10/29 09:49:10;;;;;;;19.55;10.43;;;17.80;88.60;;;;;;5028208;28;20065;-91
2022/10/29 09:51:56;;;;;;;20.33;9.93;;;17.80;88.30;;;;;;5028689;28;20022;-91
2022/10/29 09:54:24;;;;;;;19.52;10.15;;;17.90;87.90;;;;;;5011107;28;20028;-93
2022/10/29 09:56:50;;;;;;;23.77;9.98;;;17.90;87.80;;;;;;5011741;28;20029;-92
2022/10/29 09:59:31;;;;;;;19.85;10.48;;;17.90;87.80;;;;;;5008929;28;20030;-92
2022/10/29 10:01:59;;;;;;;17.88;9.93;;;17.90;87.90;;;;;;5025182;28;20112;-92
2022/10/29 10:04:39;;;;;;;22.52;9.65;;;17.90;87.80;;;;;;5008114;28;20030;-91
2022/10/29 10:07:04;;;;;;;20.70;8.77;;;18.00;87.40;;;;;;5007049;28;20097;-85
2022/10/29 10:10:07;;;;;;;22.23;9.88;;;17.90;87.40;;;;;;5023259;28;20072;-93
2022/10/29 10:12:40;;;;;;;19.67;8.80;;;18.00;87.40;;;;;;5012780;28;20060;-91
2022/10/29 10:15:14;;;;;;;19.75;9.15;;;18.10;87.40;;;;;;5018108;28;20018;-92
2022/10/29 10:18:01;;;;;;;20.38;9.98;;;18.10;87.20;;;;;;5022503;28;20033;-92
2022/10/29 10:20:40;;;;;;;17.92;9.40;;;18.20;87.00;;;;;;5057851;28;20025;-94
2022/10/29 10:23:24;;;;;;;18.08;8.45;;;18.30;86.80;;;;;;5056114;28;20028;-92
2022/10/29 10:25:52;;;;;;;21.48;9.13;;;18.30;86.80;;;;;;5055140;28;20482;-92
2022/10/29 10:28:30;;;;;;;18.80;8.07;;;18.40;86.80;;;;;;5005179;28;20471;-92
2022/10/29 10:31:15;;;;;;;15.32;7.90;;;18.60;86.50;;;;;;5037792;28;20013;-93
2022/10/29 10:33:50;;;;;;;15.82;7.85;;;18.70;85.30;;;;;;5037965;28;20035;-92
2022/10/29 10:36:19;;;;;;;17.13;8.18;;;18.90;85.20;;;;;;5054931;28;20059;-92
2022/10/29 10:38:50;;;;;;;16.98;8.10;;;19.00;84.30;;;;;;5054405;28;20017;-91
2022/10/29 10:41:23;;;;;;;15.60;9.45;;;19.10;83.60;;;;;;5053966;28;20025;-92
2022/10/29 10:43:49;;;;;;;15.57;9.15;;;19.20;83.80;;;;;;5053640;28;20029;-92
2022/10/29 10:46:28;;;;;;;19.38;7.88;;;19.30;83.20;;;;;;5004353;28;20036;-90
2022/10/29 10:49:37;;;;;;;18.27;8.10;;;19.40;83.00;;;;;;5037408;28;20390;-92
2022/10/29 10:52:13;;;;;;;20.25;7.80;;;19.50;82.50;;;;;;5024809;28;20142;-92
2022/10/29 10:54:44;;;;;;;14.32;6.97;;;19.60;82.90;;;;;;5053409;28;20146;-91
2022/10/29 10:57:09;;;;;;;16.98;7.68;;;19.80;82.40;;;;;;5054641;28;20025;-93
2022/10/29 10:59:46;;;;;;;16.33;7.65;;;19.90;81.30;;;;;;5038116;28;20112;-92
2022/10/29 11:02:35;;;;;;;17.60;7.28;;;20.00;80.90;;;;;;5054619;28;20017;-93
2022/10/29 11:05:30;;;;;;;14.80;7.40;;;20.10;80.70;;;;;;5040609;28;20068;-93
2022/10/29 11:08:35;;;;;;;18.02;7.07;;;20.30;80.70;;;;;;5052309;28;20525;-93
2022/10/29 11:11:18;;;;;;;14.10;6.75;;;20.40;79.70;;;;;;4973819;28;20432;-92
2022/10/29 11:13:44;;;;;;;14.75;5.88;;;20.50;79.80;;;;;;5034581;28;20084;-91
2022/10/29 11:16:30;;;;;;;13.05;5.60;;;20.60;77.80;;;;;;5039465;28;20107;-92
2022/10/29 11:19:04;;;;;;;9.38;5.32;;;20.70;77.00;;;;;;5036789;28;20018;-93
2022/10/29 11:21:33;;;;;;;14.60;5.50;;;20.70;77.50;;;;;;5054732;28;20060;-93
2022/10/29 11:24:08;;;;;;;12.10;5.45;;;20.80;76.90;;;;;;5053620;28;20064;-92
2022/10/29 11:26:41;;;;;;;14.13;5.22;;;20.90;76.60;;;;;;5056023;28;20025;-93
2022/10/29 11:29:13;;;;;;;11.70;4.85;;;20.90;76.60;;;;;;5058478;28;20544;-91
2022/10/29 11:32:03;;;;;;;10.20;4.75;;;21.10;76.00;;;;;;5059881;28;20025;-91
2022/10/29 11:34:41;;;;;;;11.35;4.93;;;21.20;75.20;;;;;;5058668;28;20028;-93
2022/10/29 11:37:30;;;;;;;12.10;4.72;;;21.40;73.80;;;;;;5057178;28;20029;-92
2022/10/29 11:40:04;;;;;;;12.32;4.53;;;21.50;74.80;;;;;;5057246;28;20482;-91
2022/10/29 11:42:30;;;;;;;12.15;4.95;;;21.60;74.00;;;;;;5058629;28;20067;-91
2022/10/29 11:44:58;;;;;;;13.18;5.40;;;21.60;74.30;;;;;;5024686;28;20398;-91
2022/10/29 11:47:54;;;;;;;12.32;4.65;;;21.70;73.20;;;;;;5042390;28;20033;-91
2022/10/29 11:50:58;;;;;;;12.05;4.28;;;21.90;72.00;;;;;;5057965;28;20107;-93
2022/10/29 11:53:45;;;;;;;10.05;4.88;;;21.90;72.00;;;;;;5058104;28;20053;-92
2022/10/29 11:56:48;;;;;;;11.80;4.75;;;21.90;72.00;;;;;;5057334;28;20548;-92
2022/10/29 11:59:33;;;;;;;11.10;4.75;;;21.90;71.00;;;;;;5056742;28;20025;-92
2022/10/29 12:02:06;;;;;;;10.82;4.80;;;22.00;72.00;;;;;;5057691;28;20050;-93
2022/10/29 12:04:45;;;;;;;12.00;5.13;;;22.00;71.30;;;;;;5057607;28;20111;-92
2022/10/29 12:07:31;;;;;;;14.00;5.90;;;21.90;71.20;;;;;;5056280;28;20036;-93
2022/10/29 12:10:24;;;;;;;13.00;4.68;;;21.90;72.00;;;;;;5055977;28;20020;-92
2022/10/29 12:12:55;;;;;;;13.45;4.90;;;21.90;71.90;;;;;;5056217;28;20029;-93
2022/10/29 12:15:37;;;;;;;13.70;5.15;;;22.00;73.00;;;;;;5056391;28;20506;-92
2022/10/29 12:18:35;;;;;;;10.00;4.65;;;22.10;72.80;;;;;;5056479;28;20498;-92
2022/10/29 12:21:29;;;;;;;10.73;4.05;;;22.20;71.70;;;;;;5055904;28;20009;-93
2022/10/29 12:24:25;;;;;;;15.25;4.53;;;22.30;72.00;;;;;;5055916;28;20060;-91
2022/10/29 12:27:00;;;;;;;12.48;4.95;;;22.30;70.10;;;;;;5056179;28;20395;-92
2022/10/29 12:29:47;;;;;;;9.40;4.53;;;22.30;71.10;;;;;;5056096;28;20035;-91
2022/10/29 12:32:25;;;;;;;9.30;4.25;;;22.40;69.80;;;;;;5056572;28;20563;-92
2022/10/29 12:35:07;;;;;;;8.27;3.83;;;22.40;70.10;;;;;;5056597;28;20024;-92
2022/10/29 12:37:43;;;;;;;9.52;3.83;;;22.40;69.50;;;;;;5042275;28;20036;-92
2022/10/29 12:40:32;;;;;;;9.73;3.88;;;22.40;69.30;;;;;;5063927;28;20029;-94
2022/10/29 12:43:04;;;;;;;8.70;5.00;;;22.30;69.00;;;;;;5059009;28;20059;-91
2022/10/29 12:46:00;;;;;;;11.80;4.63;;;22.30;69.30;;;;;;5056714;28;20025;-92
2022/10/29 12:48:48;;;;;;;17.73;5.32;;;22.30;69.20;;;;;;5026726;28;20041;-92
2022/10/29 12:51:26;;;;;;;12.05;6.28;;;22.30;70.10;;;;;;5062082;28;20013;-92
2022/10/29 12:54:18;;;;;;;12.77;5.70;;;22.30;70.20;;;;;;5059300;28;20025;-91
2022/10/29 12:56:44;;;;;;;13.05;6.72;;;22.30;70.90;;;;;;5059903;28;20017;-92
2022/10/29 12:59:36;;;;;;;16.17;6.35;;;22.20;71.10;;;;;;5042867;28;20017;-93
2022/10/29 13:02:20;;;;;;;16.35;5.85;;;22.20;71.10;;;;;;5040574;28;20041;-93